Time;durP1;ratioP1;P1;durP2;ratioP2;P2;SDS_P1;SDS_P2;PMS_P1;PMS_P2;Temp;Humidity;BMP_temperature;BMP_pressure;BME280_temperature;BME280_humidity;BME280_pressure;Samples;Min_cycle;Max_cycle;Signal;HPM_P1;HPM_P2
2022/07/25 00:00:16;;;;;;;8.68;3.88;;;;;;;;;;5039709;28;20240;-66
2022/07/25 00:02:42;;;;;;;5.78;3.85;;;;;;;;;;5036122;28;20319;-66
2022/07/25 00:05:07;;;;;;;6.30;4.13;;;;;;;;;;5019913;28;20228;-65
2022/07/25 00:07:32;;;;;;;6.00;4.00;;;;;;;;;;5021761;28;20584;-65
2022/07/25 00:09:58;;;;;;;8.45;4.18;;;;;;;;;;5021087;28;20681;-65
2022/07/25 00:12:23;;;;;;;7.30;4.30;;;;;;;;;;5021063;28;20303;-65
2022/07/25 00:14:48;;;;;;;5.60;3.58;;;;;;;;;;5021330;28;20575;-65
2022/07/25 00:17:14;;;;;;;7.07;4.05;;;;;;;;;;5020259;28;20203;-65
2022/07/25 00:19:39;;;;;;;5.85;3.90;;;;;;;;;;5021482;28;20207;-66
2022/07/25 00:22:04;;;;;;;7.90;4.20;;;;;;;;;;5021080;28;20285;-66
2022/07/25 00:24:30;;;;;;;6.40;4.25;;;;;;;;;;5020273;28;20251;-66
2022/07/25 00:26:55;;;;;;;5.07;3.90;;;;;;;;;;5021342;28;20631;-65
2022/07/25 00:29:20;;;;;;;6.75;4.10;;;;;;;;;;5020385;28;20251;-66
2022/07/25 00:31:45;;;;;;;5.57;3.90;;;;;;;;;;5020248;28;20253;-65
2022/07/25 00:34:11;;;;;;;5.35;4.25;;;;;;;;;;5020870;28;20229;-65
2022/07/25 00:36:36;;;;;;;6.72;4.50;;;;;;;;;;5020757;28;20234;-65
2022/07/25 00:39:02;;;;;;;6.97;4.70;;;;;;;;;;5039660;28;20203;-66
2022/07/25 00:41:27;;;;;;;5.47;4.38;;;;;;;;;;5040350;28;20218;-65
2022/07/25 00:43:52;;;;;;;8.02;4.60;;;;;;;;;;5041216;28;20688;-65
2022/07/25 00:46:18;;;;;;;7.45;5.05;;;;;;;;;;5038974;28;20560;-65
2022/07/25 00:48:43;;;;;;;6.47;4.63;;;;;;;;;;5040751;28;20674;-65
2022/07/25 00:51:08;;;;;;;6.15;4.10;;;;;;;;;;5040252;28;20633;-65
2022/07/25 00:53:34;;;;;;;7.93;5.18;;;;;;;;;;5040272;28;20222;-65
2022/07/25 00:56:00;;;;;;;7.50;4.75;;;;;;;;;;5040339;28;20465;-66
2022/07/25 00:58:25;;;;;;;5.78;4.20;;;;;;;;;;5039964;28;20203;-66
2022/07/25 01:00:50;;;;;;;6.75;4.50;;;;;;;;;;5039116;28;20245;-66
2022/07/25 01:03:15;;;;;;;7.85;5.43;;;;;;;;;;5040135;28;20233;-66
2022/07/25 01:05:41;;;;;;;7.10;4.90;;;;;;;;;;5037002;28;20219;-66
2022/07/25 01:08:06;;;;;;;6.95;4.85;;;;;;;;;;5023589;28;20230;-65
2022/07/25 01:10:32;;;;;;;8.35;5.10;;;;;;;;;;5026553;28;20214;-65
2022/07/25 01:12:57;;;;;;;7.35;5.20;;;;;;;;;;5043692;28;20363;-65
2022/07/25 01:15:22;;;;;;;7.47;5.07;;;;;;;;;;5032926;28;20215;-65
2022/07/25 01:17:48;;;;;;;5.97;4.78;;;;;;;;;;5023983;28;20585;-65
2022/07/25 01:20:14;;;;;;;7.32;5.25;;;;;;;;;;5023765;28;20246;-65
2022/07/25 01:22:39;;;;;;;7.75;5.07;;;;;;;;;;5025821;28;20702;-65
2022/07/25 01:25:05;;;;;;;6.53;5.00;;;;;;;;;;5043819;28;20298;-65
2022/07/25 01:27:30;;;;;;;7.68;5.10;;;;;;;;;;5042850;28;20226;-66
2022/07/25 01:29:55;;;;;;;7.90;5.40;;;;;;;;;;5031873;28;20270;-66
2022/07/25 01:32:21;;;;;;;9.45;5.55;;;;;;;;;;5023094;28;20207;-66
2022/07/25 01:34:46;;;;;;;6.28;5.20;;;;;;;;;;5024007;28;20813;-65
2022/07/25 01:37:11;;;;;;;6.60;4.97;;;;;;;;;;5023765;28;20215;-65
2022/07/25 01:42:40;;;;;;;8.27;5.50;;;;;;;;;;5028075;28;20338;-65
2022/07/25 01:45:06;;;;;;;10.77;5.72;;;;;;;;;;5023907;28;20310;-65
2022/07/25 01:47:31;;;;;;;8.30;6.10;;;;;;;;;;5024020;28;20218;-65
2022/07/25 01:49:56;;;;;;;6.30;5.45;;;;;;;;;;5023389;28;20234;-65
2022/07/25 01:52:21;;;;;;;7.43;5.13;;;;;;;;;;5023515;28;20662;-65
2022/07/25 01:54:47;;;;;;;7.70;6.10;;;;;;;;;;5023079;28;20219;-65
2022/07/25 01:57:12;;;;;;;7.40;5.70;;;;;;;;;;5022831;28;20383;-65
2022/07/25 01:59:38;;;;;;;9.13;5.85;;;;;;;;;;5037216;28;20231;-65
2022/07/25 02:02:03;;;;;;;8.75;5.78;;;;;;;;;;5042529;28;20626;-65
2022/07/25 02:04:29;;;;;;;9.32;5.95;;;;;;;;;;5043095;28;20211;-65
2022/07/25 02:06:54;;;;;;;7.75;6.22;;;;;;;;;;5030386;28;20286;-66
2022/07/25 02:09:19;;;;;;;7.35;5.45;;;;;;;;;;5022645;28;20570;-65
2022/07/25 02:11:45;;;;;;;7.35;6.30;;;;;;;;;;5022981;28;20225;-65
2022/07/25 02:14:10;;;;;;;8.25;6.07;;;;;;;;;;5022982;28;20689;-65
2022/07/25 02:16:35;;;;;;;7.93;6.00;;;;;;;;;;5023394;28;20254;-65
2022/07/25 02:19:01;;;;;;;8.63;6.00;;;;;;;;;;5022337;28;20211;-66
2022/07/25 02:21:26;;;;;;;8.00;6.10;;;;;;;;;;5023349;28;20239;-66
2022/07/25 02:23:51;;;;;;;11.27;6.20;;;;;;;;;;5022465;28;20219;-66
2022/07/25 02:26:16;;;;;;;7.90;6.30;;;;;;;;;;5022487;28;20204;-65
2022/07/25 02:28:42;;;;;;;8.98;6.03;;;;;;;;;;5039998;28;20797;-65
2022/07/25 02:31:07;;;;;;;7.50;6.40;;;;;;;;;;5022182;28;20251;-65
2022/07/25 02:33:32;;;;;;;9.60;6.60;;;;;;;;;;5023490;28;20211;-65
2022/07/25 02:35:58;;;;;;;8.00;6.03;;;;;;;;;;5024001;28;20231;-65
2022/07/25 02:38:23;;;;;;;9.73;6.63;;;;;;;;;;5022132;28;20682;-65
2022/07/25 02:40:49;;;;;;;7.90;6.15;;;;;;;;;;5022788;28;20216;-65
2022/07/25 02:43:14;;;;;;;7.53;6.18;;;;;;;;;;5022150;28;20307;-65
2022/07/25 02:45:40;;;;;;;10.02;6.10;;;;;;;;;;5022358;28;20757;-65
2022/07/25 02:48:05;;;;;;;7.13;6.32;;;;;;;;;;5025532;28;20665;-66
2022/07/25 02:50:30;;;;;;;8.32;6.78;;;;;;;;;;5047077;28;20645;-65
2022/07/25 02:52:56;;;;;;;8.18;6.30;;;;;;;;;;5044064;28;20261;-65
2022/07/25 02:55:21;;;;;;;9.35;6.50;;;;;;;;;;5022321;28;20265;-65
2022/07/25 02:57:46;;;;;;;11.15;7.10;;;;;;;;;;5041895;28;20238;-66
2022/07/25 03:00:12;;;;;;;10.48;7.40;;;;;;;;;;5016166;28;20232;-65
2022/07/25 03:02:37;;;;;;;11.43;7.10;;;;;;;;;;5013134;28;20247;-65
2022/07/25 03:05:09;;;;;;;9.43;6.68;;;;;;;;;;5021448;28;20204;-66
2022/07/25 03:07:34;;;;;;;10.13;6.65;;;;;;;;;;5021435;28;20952;-65
2022/07/25 03:10:00;;;;;;;10.52;6.82;;;;;;;;;;5003332;28;20311;-65
2022/07/25 03:12:25;;;;;;;9.45;7.00;;;;;;;;;;5001683;28;20215;-65
2022/07/25 03:14:50;;;;;;;9.27;6.75;;;;;;;;;;5013303;28;20262;-65
2022/07/25 03:17:15;;;;;;;10.85;7.20;;;;;;;;;;5003206;28;20691;-65
2022/07/25 03:19:41;;;;;;;9.95;6.97;;;;;;;;;;5002047;28;20351;-65
2022/07/25 03:22:06;;;;;;;9.25;7.32;;;;;;;;;;5002030;28;20236;-66
2022/07/25 03:24:31;;;;;;;10.73;7.53;;;;;;;;;;5002141;28;20562;-65
2022/07/25 03:26:57;;;;;;;9.27;6.97;;;;;;;;;;5004998;28;20569;-65
2022/07/25 03:29:22;;;;;;;9.60;7.13;;;;;;;;;;5013379;28;20296;-65
2022/07/25 03:31:47;;;;;;;9.00;7.20;;;;;;;;;;5021731;28;20215;-65
2022/07/25 03:34:13;;;;;;;11.07;7.40;;;;;;;;;;5010853;28;20212;-65
2022/07/25 03:36:38;;;;;;;9.57;6.70;;;;;;;;;;5002551;28;20220;-65
2022/07/25 03:39:03;;;;;;;9.05;7.50;;;;;;;;;;5001534;28;20216;-65
2022/07/25 03:41:29;;;;;;;10.00;7.38;;;;;;;;;;5001654;28;20213;-65
2022/07/25 03:43:54;;;;;;;9.07;7.43;;;;;;;;;;5020966;28;20715;-64
2022/07/25 03:46:19;;;;;;;13.73;7.18;;;;;;;;;;5021458;28;20339;-65
2022/07/25 03:48:45;;;;;;;9.15;7.40;;;;;;;;;;5009428;28;20263;-65
2022/07/25 03:51:10;;;;;;;8.40;7.50;;;;;;;;;;5001843;28;20629;-66
2022/07/25 03:54:00;;;;;;;10.02;6.97;;;;;;;;;;5002407;28;20220;-64
2022/07/25 03:56:20;;;;;;;11.13;7.75;;;;;;;;;;5019801;28;20220;-62
2022/07/25 03:58:46;;;;;;;9.70;7.93;;;;;;;;;;5022542;28;20713;-64
2022/07/25 04:01:11;;;;;;;9.15;7.43;;;;;;;;;;5040580;28;20215;-64
2022/07/25 04:03:36;;;;;;;10.97;7.70;;;;;;;;;;5040030;28;20415;-62
2022/07/25 04:06:02;;;;;;;9.02;7.40;;;;;;;;;;5025825;28;20208;-64
2022/07/25 04:08:27;;;;;;;9.43;6.68;;;;;;;;;;5023131;28;20207;-63
2022/07/25 04:10:52;;;;;;;10.13;7.30;;;;;;;;;;5022246;28;20322;-62
2022/07/25 04:13:18;;;;;;;10.77;7.50;;;;;;;;;;5022764;28;20210;-63
2022/07/25 04:15:43;;;;;;;8.57;6.80;;;;;;;;;;5020080;28;20213;-63
2022/07/25 04:18:08;;;;;;;9.10;7.53;;;;;;;;;;5020279;28;20326;-68
2022/07/25 04:20:36;;;;;;;11.05;7.45;;;;;;;;;;5020896;28;20214;-65
2022/07/25 04:23:01;;;;;;;16.17;7.95;;;;;;;;;;5020197;28;20208;-66
2022/07/25 04:25:26;;;;;;;20.63;8.02;;;;;;;;;;5020615;28;20223;-66
2022/07/25 04:27:52;;;;;;;15.23;8.32;;;;;;;;;;5022635;28;20204;-67
2022/07/25 04:30:17;;;;;;;11.68;7.78;;;;;;;;;;5021956;28;20315;-66
2022/07/25 04:32:43;;;;;;;13.50;7.72;;;;;;;;;;5022539;28;21283;-65
2022/07/25 04:35:08;;;;;;;11.07;8.23;;;;;;;;;;5022741;28;20729;-66
2022/07/25 04:37:35;;;;;;;10.65;8.43;;;;;;;;;;5022171;28;20230;-66
2022/07/25 04:40:00;;;;;;;17.00;8.32;;;;;;;;;;5023839;28;20230;-65
2022/07/25 04:42:26;;;;;;;11.85;7.78;;;;;;;;;;5026340;28;20263;-64
2022/07/25 04:44:52;;;;;;;16.38;8.75;;;;;;;;;;5024563;28;20212;-63
2022/07/25 04:47:17;;;;;;;19.10;8.32;;;;;;;;;;5024884;28;20301;-63
2022/07/25 04:49:42;;;;;;;11.38;7.43;;;;;;;;;;5024690;28;20219;-63
2022/07/25 04:52:08;;;;;;;10.75;7.60;;;;;;;;;;5024192;28;20207;-64
2022/07/25 04:54:33;;;;;;;11.85;7.57;;;;;;;;;;5024796;28;20334;-64
2022/07/25 04:56:59;;;;;;;11.95;7.25;;;;;;;;;;5024531;28;20611;-63
2022/07/25 04:59:24;;;;;;;9.73;7.60;;;;;;;;;;5042359;28;20231;-64
2022/07/25 05:01:49;;;;;;;11.15;7.95;;;;;;;;;;5044546;28;20219;-64
2022/07/25 05:04:14;;;;;;;8.68;7.35;;;;;;;;;;5033982;28;20311;-63
2022/07/25 05:06:40;;;;;;;58.03;10.65;;;;;;;;;;5024278;28;20221;-64
2022/07/25 05:09:05;;;;;;;10.35;7.30;;;;;;;;;;5024493;28;20222;-63
2022/07/25 05:11:30;;;;;;;9.32;7.60;;;;;;;;;;5024388;28;20266;-64
2022/07/25 05:13:56;;;;;;;10.52;7.82;;;;;;;;;;5023265;28;20214;-64
2022/07/25 05:16:21;;;;;;;9.70;7.60;;;;;;;;;;5030714;28;20310;-63
2022/07/25 05:18:46;;;;;;;14.35;8.23;;;;;;;;;;5028280;28;20219;-64
2022/07/25 05:21:11;;;;;;;21.70;8.43;;;;;;;;;;5035919;28;20644;-64
2022/07/25 05:23:37;;;;;;;10.65;7.80;;;;;;;;;;5024530;28;20219;-64
2022/07/25 05:26:02;;;;;;;23.52;9.02;;;;;;;;;;5023065;28;20644;-64
2022/07/25 05:28:27;;;;;;;10.48;7.95;;;;;;;;;;5024404;28;20277;-63
2022/07/25 05:30:53;;;;;;;10.55;7.65;;;;;;;;;;5023969;28;20219;-63
2022/07/25 05:33:18;;;;;;;14.45;8.95;;;;;;;;;;5026264;28;20334;-65
2022/07/25 05:35:43;;;;;;;9.50;8.18;;;;;;;;;;5028442;28;20252;-64
2022/07/25 05:38:09;;;;;;;16.08;9.85;;;;;;;;;;5025246;28;20701;-65
2022/07/25 05:40:34;;;;;;;15.25;9.93;;;;;;;;;;5024088;28;20215;-64
2022/07/25 05:42:59;;;;;;;23.27;10.25;;;;;;;;;;5043408;28;20230;-65
2022/07/25 05:45:25;;;;;;;17.75;10.68;;;;;;;;;;5042688;28;20576;-65
2022/07/25 05:47:50;;;;;;;13.82;9.25;;;;;;;;;;5043017;28;20211;-66
2022/07/25 05:50:15;;;;;;;14.57;9.02;;;;;;;;;;5043350;28;20225;-65
2022/07/25 05:52:41;;;;;;;21.08;9.98;;;;;;;;;;5030907;28;20667;-66
2022/07/25 05:55:06;;;;;;;32.17;11.38;;;;;;;;;;5022944;28;20262;-66
2022/07/25 05:57:31;;;;;;;17.70;9.57;;;;;;;;;;5023663;28;20247;-66
2022/07/25 05:59:57;;;;;;;18.92;9.52;;;;;;;;;;5023409;28;20243;-65
2022/07/25 06:02:22;;;;;;;13.93;10.10;;;;;;;;;;5022327;28;20227;-66
2022/07/25 06:04:47;;;;;;;15.15;9.57;;;;;;;;;;5024324;28;20924;-66
2022/07/25 06:07:12;;;;;;;15.43;9.48;;;;;;;;;;5039126;28;20261;-66
2022/07/25 06:09:38;;;;;;;14.38;9.50;;;;;;;;;;5025881;28;20303;-66
2022/07/25 06:12:03;;;;;;;17.30;9.13;;;;;;;;;;5022658;28;20683;-66
2022/07/25 06:14:29;;;;;;;13.27;9.80;;;;;;;;;;5023080;28;20219;-66
2022/07/25 06:16:54;;;;;;;12.38;9.13;;;;;;;;;;5023338;28;20738;-66
2022/07/25 06:19:19;;;;;;;16.73;9.52;;;;;;;;;;5023165;28;20219;-66
2022/07/25 06:21:45;;;;;;;13.85;8.82;;;;;;;;;;5023249;28;20323;-66
2022/07/25 06:24:10;;;;;;;18.30;9.38;;;;;;;;;;5021964;28;20220;-66
2022/07/25 06:26:37;;;;;;;17.98;9.45;;;;;;;;;;5023418;28;20258;-66
2022/07/25 06:29:02;;;;;;;14.23;8.70;;;;;;;;;;5022305;28;20294;-66
2022/07/25 06:31:28;;;;;;;12.02;8.60;;;;;;;;;;5037659;28;20298;-66
2022/07/25 06:33:53;;;;;;;13.20;8.63;;;;;;;;;;5042601;28;20322;-66
2022/07/25 06:36:19;;;;;;;11.77;8.45;;;;;;;;;;5042357;28;20239;-66
2022/07/25 06:38:44;;;;;;;22.48;9.15;;;;;;;;;;5041807;28;20217;-66
2022/07/25 06:41:12;;;;;;;24.63;8.63;;;;;;;;;;5041795;28;20662;-65
2022/07/25 06:43:38;;;;;;;15.80;8.00;;;;;;;;;;5024178;28;20234;-65
2022/07/25 06:46:03;;;;;;;15.80;8.50;;;;;;;;;;5040670;28;20211;-65
2022/07/25 06:48:29;;;;;;;16.25;8.10;;;;;;;;;;5042936;28;20207;-65
2022/07/25 06:50:54;;;;;;;15.00;8.05;;;;;;;;;;5041722;28;20211;-65
2022/07/25 06:53:19;;;;;;;18.25;7.85;;;;;;;;;;5024083;28;20230;-64
2022/07/25 06:55:45;;;;;;;13.05;7.53;;;;;;;;;;5022933;28;20683;-65
2022/07/25 06:58:10;;;;;;;14.70;8.30;;;;;;;;;;5040041;28;20563;-65
2022/07/25 07:00:35;;;;;;;13.57;8.30;;;;;;;;;;5030550;28;20226;-64
2022/07/25 07:03:01;;;;;;;16.25;8.35;;;;;;;;;;5041990;28;20222;-64
2022/07/25 07:05:27;;;;;;;13.85;8.43;;;;;;;;;;5053336;28;20614;-65
2022/07/25 07:07:52;;;;;;;13.93;8.30;;;;;;;;;;5054671;28;20258;-65
2022/07/25 07:10:18;;;;;;;25.40;9.00;;;;;;;;;;5033486;28;20211;-64
2022/07/25 07:12:43;;;;;;;43.10;9.93;;;;;;;;;;5050718;28;20211;-65
2022/07/25 07:15:09;;;;;;;86.20;13.60;;;;;;;;;;5034255;28;20622;-64
2022/07/25 07:17:34;;;;;;;25.10;9.10;;;;;;;;;;5071465;28;20303;-64
2022/07/25 07:20:00;;;;;;;20.38;8.60;;;;;;;;;;5050808;28;20630;-65
2022/07/25 07:22:25;;;;;;;44.30;10.23;;;;;;;;;;5056526;28;20217;-64
2022/07/25 07:24:50;;;;;;;12.18;8.52;;;;;;;;;;5071025;28;20754;-64
2022/07/25 07:27:16;;;;;;;19.27;8.57;;;;;;;;;;5070407;28;20214;-64
2022/07/25 07:29:41;;;;;;;12.32;8.43;;;;;;;;;;5065189;28;20210;-64
2022/07/25 07:32:06;;;;;;;17.17;8.20;;;;;;;;;;5059654;28;20583;-64
2022/07/25 07:34:31;;;;;;;12.85;8.50;;;;;;;;;;5052850;28;20674;-64
2022/07/25 07:36:57;;;;;;;13.63;8.40;;;;;;;;;;5051703;28;20658;-64
2022/07/25 07:39:22;;;;;;;11.93;7.90;;;;;;;;;;5050596;28;20210;-64
2022/07/25 07:41:47;;;;;;;15.40;8.50;;;;;;;;;;5050729;28;20239;-64
2022/07/25 07:44:13;;;;;;;12.30;7.95;;;;;;;;;;5050376;28;20310;-64
2022/07/25 07:46:38;;;;;;;15.23;7.38;;;;;;;;;;5051298;28;20215;-64
2022/07/25 07:49:03;;;;;;;12.00;6.75;;;;;;;;;;5050461;28;20294;-64
2022/07/25 07:51:29;;;;;;;37.17;8.35;;;;;;;;;;5051306;28;20727;-64
2022/07/25 07:56:38;;;;;;;19.15;6.85;;;;;;;;;;5050748;28;20265;-64
2022/07/25 07:59:03;;;;;;;11.85;6.40;;;;;;;;;;5059334;28;20227;-64
2022/07/25 08:01:29;;;;;;;8.90;6.07;;;;;;;;;;5065039;28;20696;-64
2022/07/25 08:03:54;;;;;;;12.90;5.90;;;;;;;;;;5050711;28;20227;-64
2022/07/25 08:06:19;;;;;;;11.63;5.30;;;;;;;;;;5050399;28;20404;-64
2022/07/25 08:08:45;;;;;;;11.07;5.50;;;;;;;;;;5063927;28;20271;-65
2022/07/25 08:11:10;;;;;;;9.63;4.53;;;;;;;;;;5050232;28;20207;-65
2022/07/25 08:13:37;;;;;;;14.50;5.00;;;;;;;;;;5050373;28;20203;-65
2022/07/25 08:16:02;;;;;;;15.80;4.82;;;;;;;;;;5052308;28;20218;-64
2022/07/25 08:18:29;;;;;;;11.10;4.70;;;;;;;;;;5059994;28;20219;-61
2022/07/25 08:20:54;;;;;;;9.00;3.95;;;;;;;;;;5034425;28;20235;-62
2022/07/25 08:23:21;;;;;;;8.65;3.65;;;;;;;;;;5049620;28;20303;-62
2022/07/25 08:25:46;;;;;;;12.70;3.92;;;;;;;;;;5050489;28;20222;-63
2022/07/25 08:28:11;;;;;;;8.90;3.33;;;;;;;;;;5049521;28;20219;-62
2022/07/25 08:30:37;;;;;;;14.23;3.55;;;;;;;;;;5050164;28;20211;-61
2022/07/25 08:33:03;;;;;;;6.75;3.00;;;;;;;;;;5050182;28;20211;-63
2022/07/25 08:35:29;;;;;;;8.88;3.50;;;;;;;;;;5032868;28;20213;-62
2022/07/25 08:37:54;;;;;;;8.23;2.85;;;;;;;;;;5049960;28;20621;-62
2022/07/25 08:40:20;;;;;;;7.03;2.55;;;;;;;;;;5049681;28;20575;-62
2022/07/25 08:42:45;;;;;;;6.75;2.92;;;;;;;;;;5049925;28;20219;-62
2022/07/25 08:45:12;;;;;;;7.35;3.08;;;;;;;;;;5049523;28;20218;-62
2022/07/25 08:47:38;;;;;;;7.43;2.40;;;;;;;;;;5033068;28;20203;-61
2022/07/25 08:50:04;;;;;;;7.40;2.50;;;;;;;;;;5032107;28;20345;-62
2022/07/25 08:52:29;;;;;;;7.93;2.50;;;;;;;;;;5050041;28;20210;-63
2022/07/25 08:54:54;;;;;;;11.65;3.00;;;;;;;;;;5032543;28;20673;-62
2022/07/25 08:57:19;;;;;;;25.25;3.30;;;;;;;;;;5049185;28;20215;-61
2022/07/25 08:59:45;;;;;;;10.55;2.30;;;;;;;;;;5049588;28;20241;-62
2022/07/25 09:02:12;;;;;;;4.57;1.88;;;;;;;;;;5050174;28;20223;-63
2022/07/25 09:04:37;;;;;;;9.43;2.10;;;;;;;;;;5049637;28;20260;-62
2022/07/25 09:07:03;;;;;;;6.40;2.00;;;;;;;;;;5049935;28;20207;-61
2022/07/25 09:09:30;;;;;;;3.72;1.70;;;;;;;;;;5050157;28;20203;-62
2022/07/25 09:11:56;;;;;;;2.88;1.48;;;;;;;;;;5048770;28;20211;-61
2022/07/25 09:14:21;;;;;;;7.60;1.85;;;;;;;;;;5049564;28;20878;-62
2022/07/25 09:16:46;;;;;;;3.95;1.60;;;;;;;;;;5050675;28;20341;-63
2022/07/25 09:19:13;;;;;;;7.78;1.90;;;;;;;;;;5049199;28;20211;-63
2022/07/25 09:21:38;;;;;;;12.70;2.35;;;;;;;;;;5032479;28;20203;-62
2022/07/25 09:24:10;;;;;;;12.65;2.08;;;;;;;;;;5049325;28;20271;-63
2022/07/25 09:26:43;;;;;;;11.00;2.22;;;;;;;;;;5049546;28;20212;-62
2022/07/25 09:29:14;;;;;;;9.05;1.83;;;;;;;;;;5052978;28;20290;-63
2022/07/25 09:31:41;;;;;;;6.10;1.90;;;;;;;;;;5053662;28;20207;-62
2022/07/25 09:34:08;;;;;;;3.15;1.63;;;;;;;;;;5042981;28;20198;-62
2022/07/25 09:36:34;;;;;;;16.13;2.47;;;;;;;;;;5064007;28;20203;-61
2022/07/25 09:39:00;;;;;;;4.03;1.52;;;;;;;;;;5062512;28;20214;-61
2022/07/25 09:41:35;;;;;;;9.98;1.63;;;;;;;;;;5060859;28;20223;-62
2022/07/25 09:44:00;;;;;;;7.30;1.70;;;;;;;;;;5073495;28;20744;-62
2022/07/25 09:46:31;;;;;;;5.70;1.50;;;;;;;;;;5064851;28;20261;-61
2022/07/25 09:48:57;;;;;;;7.18;1.33;;;;;;;;;;5069580;28;20210;-62
2022/07/25 09:51:24;;;;;;;6.25;1.40;;;;;;;;;;5066148;28;20218;-61
2022/07/25 09:53:49;;;;;;;3.70;1.40;;;;;;;;;;5067310;28;20240;-61
2022/07/25 09:56:14;;;;;;;7.55;1.60;;;;;;;;;;5063786;28;20216;-62
2022/07/25 09:58:40;;;;;;;7.55;1.70;;;;;;;;;;5072803;28;20681;-61
2022/07/25 10:01:05;;;;;;;4.75;1.17;;;;;;;;;;5067029;28;20214;-61
2022/07/25 10:03:36;;;;;;;8.98;1.10;;;;;;;;;;5066019;28;20352;-61
2022/07/25 10:06:05;;;;;;;6.70;1.20;;;;;;;;;;5045693;28;20263;-62
2022/07/25 10:08:34;;;;;;;14.23;1.58;;;;;;;;;;5054593;28;20222;-61
2022/07/25 10:10:59;;;;;;;5.57;1.63;;;;;;;;;;5073388;28;20267;-61
2022/07/25 10:13:33;;;;;;;5.50;1.05;;;;;;;;;;5057934;28;20286;-61
2022/07/25 10:15:58;;;;;;;3.75;1.00;;;;;;;;;;5052632;28;20300;-61
2022/07/25 10:18:26;;;;;;;7.57;1.13;;;;;;;;;;5052233;28;20245;-61
2022/07/25 10:20:52;;;;;;;13.32;1.30;;;;;;;;;;5052445;28;20211;-61
2022/07/25 10:23:18;;;;;;;10.18;1.38;;;;;;;;;;5051881;28;20225;-61
2022/07/25 10:25:43;;;;;;;6.53;1.00;;;;;;;;;;5053158;28;20223;-61
2022/07/25 10:28:09;;;;;;;4.18;1.00;;;;;;;;;;5051699;28;20211;-61
2022/07/25 10:30:35;;;;;;;5.47;1.60;;;;;;;;;;5041998;28;20244;-61
2022/07/25 10:33:02;;;;;;;3.53;1.10;;;;;;;;;;5072006;28;20264;-65
2022/07/25 10:35:27;;;;;;;5.72;1.30;;;;;;;;;;5072323;28;20245;-61
2022/07/25 10:37:53;;;;;;;6.03;1.30;;;;;;;;;;5071978;28;20222;-61
2022/07/25 10:40:25;;;;;;;12.27;1.50;;;;;;;;;;5071062;28;20709;-61
2022/07/25 10:42:55;;;;;;;11.18;1.60;;;;;;;;;;5071825;28;20214;-61
2022/07/25 10:45:20;;;;;;;9.40;1.38;;;;;;;;;;5071732;28;20727;-61
2022/07/25 10:47:50;;;;;;;6.82;1.52;;;;;;;;;;5054383;28;20214;-61
2022/07/25 10:50:15;;;;;;;6.47;1.40;;;;;;;;;;5071076;28;20206;-60
2022/07/25 10:52:41;;;;;;;14.15;1.70;;;;;;;;;;5054473;28;20232;-60
2022/07/25 10:55:06;;;;;;;14.27;2.17;;;;;;;;;;5071894;28;20202;-61
2022/07/25 10:57:33;;;;;;;7.38;1.70;;;;;;;;;;5071889;28;20230;-61
2022/07/25 11:00:05;;;;;;;10.63;1.92;;;;;;;;;;5071671;28;20309;-61
2022/07/25 11:02:30;;;;;;;4.47;1.20;;;;;;;;;;5071489;28;20873;-61
2022/07/25 11:04:57;;;;;;;9.82;2.15;;;;;;;;;;5071619;28;20206;-61
2022/07/25 11:07:22;;;;;;;9.25;1.90;;;;;;;;;;5071790;28;20293;-61
2022/07/25 11:09:56;;;;;;;3.67;1.60;;;;;;;;;;5071955;28;20289;-61
2022/07/25 11:12:21;;;;;;;5.00;1.20;;;;;;;;;;5065577;28;20219;-61
2022/07/25 11:14:46;;;;;;;3.95;1.30;;;;;;;;;;5051635;28;20230;-62
2022/07/25 11:17:19;;;;;;;6.20;1.35;;;;;;;;;;5051026;28;20215;-61
2022/07/25 11:19:54;;;;;;;4.10;1.30;;;;;;;;;;5051310;28;20632;-61
2022/07/25 11:22:19;;;;;;;5.35;1.63;;;;;;;;;;5051507;28;20246;-61
2022/07/25 11:24:45;;;;;;;6.68;1.33;;;;;;;;;;5051890;28;20238;-62
2022/07/25 11:27:11;;;;;;;7.03;1.60;;;;;;;;;;5050431;28;20223;-61
2022/07/25 11:29:37;;;;;;;4.47;1.20;;;;;;;;;;5050448;28;20240;-62
2022/07/25 11:32:04;;;;;;;5.20;1.50;;;;;;;;;;5050892;28;20250;-62
2022/07/25 11:34:30;;;;;;;4.63;1.42;;;;;;;;;;5049618;28;20215;-62
2022/07/25 11:36:56;;;;;;;8.73;1.58;;;;;;;;;;5051593;28;20207;-61
2022/07/25 11:39:22;;;;;;;7.63;1.50;;;;;;;;;;5050227;28;20607;-62
2022/07/25 11:41:57;;;;;;;6.82;1.55;;;;;;;;;;5040849;28;20253;-62
2022/07/25 11:44:30;;;;;;;6.45;1.85;;;;;;;;;;5050301;28;20215;-61
2022/07/25 11:46:56;;;;;;;6.68;1.50;;;;;;;;;;5032879;28;20211;-62
2022/07/25 11:49:21;;;;;;;7.47;1.98;;;;;;;;;;5050932;28;20233;-63
2022/07/25 11:51:46;;;;;;;7.95;1.98;;;;;;;;;;5033412;28;20681;-62
2022/07/25 11:54:12;;;;;;;7.20;2.20;;;;;;;;;;5049969;28;20294;-63
2022/07/25 11:56:37;;;;;;;11.77;1.70;;;;;;;;;;5050635;28;20218;-62
2022/07/25 11:59:03;;;;;;;5.63;1.30;;;;;;;;;;5049986;28;20314;-62
2022/07/25 12:01:33;;;;;;;5.00;1.52;;;;;;;;;;5032593;28;20269;-62
2022/07/25 12:04:13;;;;;;;9.73;2.00;;;;;;;;;;5051280;28;20214;-62
2022/07/25 12:06:39;;;;;;;5.63;1.60;;;;;;;;;;5032763;28;20207;-63
2022/07/25 12:09:09;;;;;;;6.13;1.65;;;;;;;;;;5049933;28;20242;-63
2022/07/25 12:11:35;;;;;;;11.93;2.03;;;;;;;;;;5050432;28;20567;-62
2022/07/25 12:14:02;;;;;;;11.77;2.10;;;;;;;;;;5032777;28;20207;-62
2022/07/25 12:16:28;;;;;;;12.18;2.13;;;;;;;;;;5049938;28;20235;-63
2022/07/25 12:18:53;;;;;;;8.68;1.98;;;;;;;;;;5051037;28;20230;-63
2022/07/25 12:21:18;;;;;;;6.93;1.80;;;;;;;;;;5049805;28;20211;-60
2022/07/25 12:23:43;;;;;;;8.98;1.95;;;;;;;;;;5050022;28;20211;-60
2022/07/25 12:26:09;;;;;;;23.52;2.75;;;;;;;;;;5049790;28;20272;-61
2022/07/25 12:28:35;;;;;;;6.35;1.50;;;;;;;;;;5053082;28;20211;-60
2022/07/25 12:31:00;;;;;;;7.65;1.67;;;;;;;;;;5053690;28;20252;-60
2022/07/25 12:33:25;;;;;;;11.70;1.88;;;;;;;;;;5070669;28;20210;-59
2022/07/25 12:35:51;;;;;;;8.65;1.88;;;;;;;;;;5060420;28;20203;-59
2022/07/25 12:38:16;;;;;;;9.15;2.08;;;;;;;;;;5048155;28;20208;-60
2022/07/25 12:40:41;;;;;;;6.25;1.58;;;;;;;;;;5032327;28;20621;-59
2022/07/25 12:43:07;;;;;;;4.93;1.60;;;;;;;;;;5049391;28;20219;-60
2022/07/25 12:45:32;;;;;;;10.88;1.83;;;;;;;;;;5050307;28;20290;-59
2022/07/25 12:47:57;;;;;;;7.57;1.98;;;;;;;;;;5050425;28;20685;-59
2022/07/25 12:50:24;;;;;;;8.55;2.20;;;;;;;;;;5048218;28;20689;-59
2022/07/25 12:52:49;;;;;;;13.02;2.15;;;;;;;;;;5050348;28;20215;-58
2022/07/25 12:55:15;;;;;;;8.52;2.10;;;;;;;;;;5049469;28;20214;-59
2022/07/25 12:57:41;;;;;;;7.30;2.08;;;;;;;;;;5052247;28;20202;-59
2022/07/25 13:00:07;;;;;;;19.83;3.25;;;;;;;;;;5064523;28;20264;-60
2022/07/25 13:02:33;;;;;;;16.75;2.58;;;;;;;;;;5039956;28;20788;-59
2022/07/25 13:04:58;;;;;;;15.98;3.35;;;;;;;;;;5031327;28;20215;-58
2022/07/25 13:07:24;;;;;;;11.23;2.40;;;;;;;;;;5021135;28;20216;-58
2022/07/25 13:09:49;;;;;;;5.95;2.35;;;;;;;;;;5022117;28;20211;-59
2022/07/25 13:12:15;;;;;;;8.90;2.35;;;;;;;;;;5036546;28;20219;-59
2022/07/25 13:14:40;;;;;;;9.57;2.38;;;;;;;;;;5030284;28;20256;-59
2022/07/25 13:17:05;;;;;;;13.60;3.10;;;;;;;;;;5029389;28;20219;-62
2022/07/25 13:19:31;;;;;;;6.38;2.47;;;;;;;;;;5034202;28;20385;-61
2022/07/25 13:21:56;;;;;;;8.45;2.40;;;;;;;;;;5028619;28;20208;-61
2022/07/25 13:24:22;;;;;;;11.18;2.47;;;;;;;;;;5027283;28;20219;-61
2022/07/25 13:26:47;;;;;;;7.20;2.40;;;;;;;;;;5021811;28;20216;-61
2022/07/25 13:29:12;;;;;;;8.32;2.72;;;;;;;;;;5022558;28;20203;-61
2022/07/25 13:31:39;;;;;;;9.57;2.30;;;;;;;;;;5039652;28;20222;-61
2022/07/25 13:34:05;;;;;;;12.15;2.53;;;;;;;;;;5046115;28;20609;-61
2022/07/25 13:36:31;;;;;;;6.93;2.90;;;;;;;;;;5041884;28;20692;-61
2022/07/25 13:38:56;;;;;;;9.45;2.58;;;;;;;;;;5029797;28;20216;-61
2022/07/25 13:41:22;;;;;;;6.53;2.67;;;;;;;;;;5027480;28;20212;-61
2022/07/25 13:43:47;;;;;;;6.00;2.33;;;;;;;;;;5027861;28;20235;-61
2022/07/25 13:46:12;;;;;;;13.90;2.90;;;;;;;;;;5027406;28;20574;-61
2022/07/25 13:48:37;;;;;;;13.05;3.00;;;;;;;;;;5024521;28;20235;-61
2022/07/25 13:51:03;;;;;;;10.55;2.65;;;;;;;;;;5020890;28;20216;-61
2022/07/25 13:53:28;;;;;;;12.80;2.90;;;;;;;;;;5035424;28;20210;-61
2022/07/25 13:55:54;;;;;;;7.60;2.50;;;;;;;;;;5043387;28;20211;-61
2022/07/25 13:58:20;;;;;;;9.30;2.65;;;;;;;;;;5028881;28;20618;-61
2022/07/25 14:00:45;;;;;;;8.98;2.70;;;;;;;;;;5046213;28;20258;-61
2022/07/25 14:03:10;;;;;;;10.13;2.60;;;;;;;;;;5027600;28;20708;-61
2022/07/25 14:05:37;;;;;;;6.00;2.60;;;;;;;;;;5027957;28;20250;-60
2022/07/25 14:08:03;;;;;;;13.27;3.03;;;;;;;;;;5045551;28;20746;-62
2022/07/25 14:10:28;;;;;;;10.02;2.58;;;;;;;;;;5043725;28;20218;-61
2022/07/25 14:12:54;;;;;;;13.02;3.13;;;;;;;;;;5020751;28;20274;-61
2022/07/25 14:15:19;;;;;;;10.80;2.35;;;;;;;;;;5018056;28;20880;-61
2022/07/25 14:17:45;;;;;;;8.35;2.58;;;;;;;;;;5021386;28;20239;-61
2022/07/25 14:20:11;;;;;;;8.68;2.88;;;;;;;;;;5027200;28;20231;-61
2022/07/25 14:22:38;;;;;;;23.83;3.60;;;;;;;;;;5045441;28;20223;-61
2022/07/25 14:25:03;;;;;;;12.02;2.85;;;;;;;;;;5046262;28;20697;-60
2022/07/25 14:27:29;;;;;;;14.07;3.03;;;;;;;;;;5032405;28;20219;-61
2022/07/25 14:29:54;;;;;;;6.30;2.17;;;;;;;;;;5027362;28;20840;-61
2022/07/25 14:32:19;;;;;;;15.15;2.42;;;;;;;;;;5026914;28;20216;-61
2022/07/25 14:34:45;;;;;;;10.30;2.20;;;;;;;;;;5030553;28;20211;-60